sensor_id;sensor_type;location;lat;lon;timestamp;pressure;altitude;pressure_sealevel;temperature;humidity
65659;BME280;60181;53.258;6.932;2022-09-20T00:01:28;102205.69;;;17.59;62.50
65659;BME280;60181;53.258;6.932;2022-09-20T00:05:53;102204.21;;;17.59;62.41
65659;BME280;60181;53.258;6.932;2022-09-20T00:10:21;102202.98;;;17.60;62.45
65659;BME280;60181;53.258;6.932;2022-09-20T00:14:49;102202.24;;;17.60;62.58
65659;BME280;60181;53.258;6.932;2022-09-20T00:19:17;102203.05;;;17.59;62.43
65659;BME280;60181;53.258;6.932;2022-09-20T00:23:45;102204.35;;;17.58;62.72
65659;BME280;60181;53.258;6.932;2022-09-20T00:28:13;102205.81;;;17.57;62.60
65659;BME280;60181;53.258;6.932;2022-09-20T00:32:41;102206.12;;;17.56;62.72
65659;BME280;60181;53.258;6.932;2022-09-20T00:37:09;102208.28;;;17.56;62.84
65659;BME280;60181;53.258;6.932;2022-09-20T00:41:37;102210.10;;;17.56;62.67
65659;BME280;60181;53.258;6.932;2022-09-20T00:46:05;102211.10;;;17.56;62.68
65659;BME280;60181;53.258;6.932;2022-09-20T00:50:42;102211.43;;;17.55;62.76
65659;BME280;60181;53.258;6.932;2022-09-20T00:55:02;102211.77;;;17.55;62.75
65659;BME280;60181;53.258;6.932;2022-09-20T00:59:29;102213.51;;;17.57;63.04
65659;BME280;60181;53.258;6.932;2022-09-20T01:03:57;102214.95;;;17.58;62.66
65659;BME280;60181;53.258;6.932;2022-09-20T01:08:25;102215.37;;;17.58;62.28
65659;BME280;60181;53.258;6.932;2022-09-20T01:12:53;102216.09;;;17.57;61.86
65659;BME280;60181;53.258;6.932;2022-09-20T01:17:22;102216.78;;;17.55;61.27
65659;BME280;60181;53.258;6.932;2022-09-20T01:21:49;102217.74;;;17.53;61.12
65659;BME280;60181;53.258;6.932;2022-09-20T01:30:54;102217.33;;;17.49;60.80
65659;BME280;60181;53.258;6.932;2022-09-20T01:35:13;102216.53;;;17.47;60.28
65659;BME280;60181;53.258;6.932;2022-09-20T01:39:48;102216.43;;;17.45;60.06
65659;BME280;60181;53.258;6.932;2022-09-20T01:44:12;102216.74;;;17.44;60.13
65659;BME280;60181;53.258;6.932;2022-09-20T01:48:37;102216.02;;;17.43;60.01
65659;BME280;60181;53.258;6.932;2022-09-20T02:11:07;102212.09;;;17.33;59.30
65659;BME280;60181;53.258;6.932;2022-09-20T02:20:00;102209.23;;;17.31;58.94
65659;BME280;60181;53.258;6.932;2022-09-20T02:28:58;102206.36;;;17.29;58.70
65659;BME280;60181;53.258;6.932;2022-09-20T02:33:39;102205.45;;;17.29;58.62
65659;BME280;60181;53.258;6.932;2022-09-20T02:37:59;102205.19;;;17.28;58.59
65659;BME280;60181;53.258;6.932;2022-09-20T03:00:23;102204.28;;;17.24;58.82
65659;BME280;60181;53.258;6.932;2022-09-20T03:04:50;102205.85;;;17.24;59.17
65659;BME280;60181;53.258;6.932;2022-09-20T03:09:03;102207.09;;;17.25;59.55
65659;BME280;60181;53.258;6.932;2022-09-20T03:13:37;102209.61;;;17.25;59.61
65659;BME280;60181;53.258;6.932;2022-09-20T03:18:07;102213.08;;;17.25;59.47
65659;BME280;60181;53.258;6.932;2022-09-20T03:22:31;102216.14;;;17.25;59.54
65659;BME280;60181;53.258;6.932;2022-09-20T03:35:51;102220.23;;;17.24;59.10
65659;BME280;60181;53.258;6.932;2022-09-20T03:40:29;102221.23;;;17.23;58.90
65659;BME280;60181;53.258;6.932;2022-09-20T03:58:14;102218.33;;;17.20;58.54
65659;BME280;60181;53.258;6.932;2022-09-20T04:20:30;102219.72;;;17.15;57.89
65659;BME280;60181;53.258;6.932;2022-09-20T04:25:01;102219.76;;;17.13;57.65
65659;BME280;60181;53.258;6.932;2022-09-20T04:29:28;102218.77;;;17.10;57.52
65659;BME280;60181;53.258;6.932;2022-09-20T04:33:53;102218.80;;;17.08;57.21
65659;BME280;60181;53.258;6.932;2022-09-20T04:38:20;102220.23;;;17.06;57.22
65659;BME280;60181;53.258;6.932;2022-09-20T04:43:07;102222.44;;;17.04;57.12
65659;BME280;60181;53.258;6.932;2022-09-20T04:47:30;102224.88;;;17.02;56.85
65659;BME280;60181;53.258;6.932;2022-09-20T05:05:16;102238.06;;;16.96;56.19
65659;BME280;60181;53.258;6.932;2022-09-20T05:09:49;102240.91;;;16.94;56.12
65659;BME280;60181;53.258;6.932;2022-09-20T05:23:19;102251.83;;;16.89;55.89
65659;BME280;60181;53.258;6.932;2022-09-20T05:27:42;102254.86;;;16.88;55.93
65659;BME280;60181;53.258;6.932;2022-09-20T05:32:05;102257.59;;;16.87;55.97
65659;BME280;60181;53.258;6.932;2022-09-20T05:41:00;102262.89;;;16.85;55.84
65659;BME280;60181;53.258;6.932;2022-09-20T05:50:08;102266.69;;;16.82;55.63
65659;BME280;60181;53.258;6.932;2022-09-20T05:54:41;102268.89;;;16.80;55.75
65659;BME280;60181;53.258;6.932;2022-09-20T06:16:45;102285.17;;;16.79;55.43
65659;BME280;60181;53.258;6.932;2022-09-20T06:21:08;102287.56;;;16.79;55.57
65659;BME280;60181;53.258;6.932;2022-09-20T06:25:40;102290.25;;;16.80;55.77
65659;BME280;60181;53.258;6.932;2022-09-20T06:30:02;102295.33;;;16.80;55.88
65659;BME280;60181;53.258;6.932;2022-09-20T06:34:28;102303.23;;;16.80;56.10
65659;BME280;60181;53.258;6.932;2022-09-20T06:43:24;102314.98;;;16.79;56.51
65659;BME280;60181;53.258;6.932;2022-09-20T06:47:52;102319.70;;;16.80;56.94
65659;BME280;60181;53.258;6.932;2022-09-20T06:52:20;102322.66;;;16.83;56.98
65659;BME280;60181;53.258;6.932;2022-09-20T06:56:48;102324.38;;;16.87;56.95
65659;BME280;60181;53.258;6.932;2022-09-20T07:01:16;102325.34;;;16.94;57.20
65659;BME280;60181;53.258;6.932;2022-09-20T07:05:44;102325.47;;;17.00;57.09
65659;BME280;60181;53.258;6.932;2022-09-20T07:10:12;102324.92;;;17.04;57.26
65659;BME280;60181;53.258;6.932;2022-09-20T07:14:40;102325.92;;;17.08;57.53
65659;BME280;60181;53.258;6.932;2022-09-20T07:19:08;102327.85;;;17.12;57.61
65659;BME280;60181;53.258;6.932;2022-09-20T07:23:36;102330.72;;;17.14;58.00
65659;BME280;60181;53.258;6.932;2022-09-20T07:28:04;102335.08;;;17.16;58.55
65659;BME280;60181;53.258;6.932;2022-09-20T07:32:32;102337.67;;;17.18;58.74
65659;BME280;60181;53.258;6.932;2022-09-20T07:37:00;102339.61;;;17.18;58.80
65659;BME280;60181;53.258;6.932;2022-09-20T07:41:28;102343.36;;;17.20;58.88
65659;BME280;60181;53.258;6.932;2022-09-20T07:45:56;102347.03;;;17.21;58.91
65659;BME280;60181;53.258;6.932;2022-09-20T07:50:24;102350.30;;;17.22;58.77
65659;BME280;60181;53.258;6.932;2022-09-20T07:54:52;102353.00;;;17.24;58.48
65659;BME280;60181;53.258;6.932;2022-09-20T07:59:20;102355.13;;;17.27;58.41
65659;BME280;60181;53.258;6.932;2022-09-20T08:03:48;102358.58;;;17.29;58.33
65659;BME280;60181;53.258;6.932;2022-09-20T08:08:16;102361.58;;;17.33;57.87
65659;BME280;60181;53.258;6.932;2022-09-20T08:12:44;102363.56;;;17.40;57.84
65659;BME280;60181;53.258;6.932;2022-09-20T08:17:12;102366.24;;;17.48;57.60
65659;BME280;60181;53.258;6.932;2022-09-20T08:21:40;102370.48;;;17.59;64.07
65659;BME280;60181;53.258;6.932;2022-09-20T08:26:09;102374.45;;;17.69;63.77
65659;BME280;60181;53.258;6.932;2022-09-20T08:30:36;102378.08;;;17.79;63.16
65659;BME280;60181;53.258;6.932;2022-09-20T08:35:04;102379.11;;;17.89;62.76
65659;BME280;60181;53.258;6.932;2022-09-20T08:39:32;102381.45;;;17.98;63.53
65659;BME280;60181;53.258;6.932;2022-09-20T08:44:10;102383.63;;;18.07;63.03
65659;BME280;60181;53.258;6.932;2022-09-20T08:48:29;102386.27;;;18.13;63.70
65659;BME280;60181;53.258;6.932;2022-09-20T08:52:56;102389.65;;;18.17;63.44
65659;BME280;60181;53.258;6.932;2022-09-20T08:57:26;102391.22;;;18.20;62.25
65659;BME280;60181;53.258;6.932;2022-09-20T09:01:52;102391.91;;;18.21;63.76
65659;BME280;60181;53.258;6.932;2022-09-20T09:06:20;102393.58;;;18.26;61.90
65659;BME280;60181;53.258;6.932;2022-09-20T09:10:57;102394.73;;;18.34;60.89
65659;BME280;60181;53.258;6.932;2022-09-20T09:15:23;102395.92;;;18.42;60.48
65659;BME280;60181;53.258;6.932;2022-09-20T09:19:51;102400.26;;;18.44;61.29
65659;BME280;60181;53.258;6.932;2022-09-20T09:24:15;102404.35;;;18.41;61.38
65659;BME280;60181;53.258;6.932;2022-09-20T09:28:40;102406.51;;;18.37;60.75
65659;BME280;60181;53.258;6.932;2022-09-20T09:33:27;102407.80;;;18.34;60.75
65659;BME280;60181;53.258;6.932;2022-09-20T09:37:36;102411.04;;;18.35;60.04
65659;BME280;60181;53.258;6.932;2022-09-20T09:42:20;102412.62;;;18.36;60.03
65659;BME280;60181;53.258;6.932;2022-09-20T09:46:33;102415.43;;;18.40;59.53
65659;BME280;60181;53.258;6.932;2022-09-20T09:51:07;102417.25;;;18.43;59.80
65659;BME280;60181;53.258;6.932;2022-09-20T09:55:38;102420.10;;;18.45;59.58
65659;BME280;60181;53.258;6.932;2022-09-20T10:00:01;102424.34;;;18.48;59.62
65659;BME280;60181;53.258;6.932;2022-09-20T10:04:31;102426.61;;;18.46;60.22
65659;BME280;60181;53.258;6.932;2022-09-20T10:13:22;102428.67;;;18.42;60.28
65659;BME280;60181;53.258;6.932;2022-09-20T10:17:57;102428.23;;;18.40;60.15
65659;BME280;60181;53.258;6.932;2022-09-20T10:22:19;102428.12;;;18.39;60.28
65659;BME280;60181;53.258;6.932;2022-09-20T10:27:03;102427.91;;;18.37;60.43
65659;BME280;60181;53.258;6.932;2022-09-20T10:40:20;102427.10;;;18.34;60.50
65659;BME280;60181;53.258;6.932;2022-09-20T10:44:43;102428.34;;;18.33;60.31
65659;BME280;60181;53.258;6.932;2022-09-20T10:49:19;102428.89;;;18.32;60.48
65659;BME280;60181;53.258;6.932;2022-09-20T10:53:37;102429.20;;;18.32;60.58
65659;BME280;60181;53.258;6.932;2022-09-20T10:58:15;102430.53;;;18.31;60.69
65659;BME280;60181;53.258;6.932;2022-09-20T11:02:42;102432.10;;;18.31;60.64
65659;BME280;60181;53.258;6.932;2022-09-20T11:11:24;102432.52;;;18.31;60.63
65659;BME280;60181;53.258;6.932;2022-09-20T11:16:00;102432.65;;;18.30;60.69
65659;BME280;60181;53.258;6.932;2022-09-20T11:20:21;102431.49;;;18.30;60.75
65659;BME280;60181;53.258;6.932;2022-09-20T11:29:35;102427.49;;;18.29;60.78
65659;BME280;60181;53.258;6.932;2022-09-20T11:33:45;102427.36;;;18.27;61.10
65659;BME280;60181;53.258;6.932;2022-09-20T11:38:14;102428.87;;;18.24;61.16
65659;BME280;60181;53.258;6.932;2022-09-20T11:42:40;102430.62;;;18.21;61.62
65659;BME280;60181;53.258;6.932;2022-09-20T12:00:32;102434.11;;;18.17;61.44
65659;BME280;60181;53.258;6.932;2022-09-20T12:05:00;102436.68;;;18.16;61.58
65659;BME280;60181;53.258;6.932;2022-09-20T12:09:37;102440.80;;;18.15;61.73
65659;BME280;60181;53.258;6.932;2022-09-20T12:13:58;102443.24;;;18.13;61.39
65659;BME280;60181;53.258;6.932;2022-09-20T12:18:37;102445.81;;;18.13;61.07
65659;BME280;60181;53.258;6.932;2022-09-20T12:22:52;102446.28;;;18.13;60.94
65659;BME280;60181;53.258;6.932;2022-09-20T12:31:48;102447.05;;;18.13;60.65
65659;BME280;60181;53.258;6.932;2022-09-20T12:36:16;102447.62;;;18.14;60.61
65659;BME280;60181;53.258;6.932;2022-09-20T12:45:14;102448.54;;;18.17;60.44
65659;BME280;60181;53.258;6.932;2022-09-20T12:54:08;102450.29;;;18.21;60.20
65659;BME280;60181;53.258;6.932;2022-09-20T13:12:00;102451.50;;;18.27;60.16
65659;BME280;60181;53.258;6.932;2022-09-20T13:16:33;102452.29;;;18.26;60.24
65659;BME280;60181;53.258;6.932;2022-09-20T13:20:56;102452.94;;;18.28;59.95
65659;BME280;60181;53.258;6.932;2022-09-20T13:25:24;102453.54;;;18.29;59.92
65659;BME280;60181;53.258;6.932;2022-09-20T13:29:52;102454.39;;;18.30;60.03
65659;BME280;60181;53.258;6.932;2022-09-20T13:34:20;102456.01;;;18.28;60.26
65659;BME280;60181;53.258;6.932;2022-09-20T13:38:48;102457.71;;;18.27;60.21
65659;BME280;60181;53.258;6.932;2022-09-20T13:47:47;102461.78;;;18.27;60.00
65659;BME280;60181;53.258;6.932;2022-09-20T13:56:40;102467.87;;;18.28;60.06
65659;BME280;60181;53.258;6.932;2022-09-20T14:01:18;102471.02;;;18.28;60.03
65659;BME280;60181;53.258;6.932;2022-09-20T14:05:35;102472.49;;;18.27;60.18
65659;BME280;60181;53.258;6.932;2022-09-20T14:10:05;102474.69;;;18.26;60.08
65659;BME280;60181;53.258;6.932;2022-09-20T14:14:32;102477.10;;;18.26;60.08
65659;BME280;60181;53.258;6.932;2022-09-20T14:19:00;102479.75;;;18.26;60.03
65659;BME280;60181;53.258;6.932;2022-09-20T14:23:28;102481.75;;;18.26;60.01
65659;BME280;60181;53.258;6.932;2022-09-20T14:28:05;102483.15;;;18.26;60.06
65659;BME280;60181;53.258;6.932;2022-09-20T14:32:25;102484.64;;;18.26;60.07
65659;BME280;60181;53.258;6.932;2022-09-20T14:36:58;102487.27;;;18.25;60.36
65659;BME280;60181;53.258;6.932;2022-09-20T14:41:23;102489.16;;;18.23;60.36
65659;BME280;60181;53.258;6.932;2022-09-20T14:45:51;102490.73;;;18.21;60.51
65659;BME280;60181;53.258;6.932;2022-09-20T14:50:29;102491.37;;;18.19;60.39
65659;BME280;60181;53.258;6.932;2022-09-20T14:54:55;102492.70;;;18.19;60.42
65659;BME280;60181;53.258;6.932;2022-09-20T14:59:22;102493.53;;;18.19;60.15
65659;BME280;60181;53.258;6.932;2022-09-20T15:03:40;102494.68;;;18.21;60.06
65659;BME280;60181;53.258;6.932;2022-09-20T15:08:09;102495.08;;;18.22;60.11
65659;BME280;60181;53.258;6.932;2022-09-20T15:12:35;102494.78;;;18.22;60.15
65659;BME280;60181;53.258;6.932;2022-09-20T15:17:03;102496.26;;;18.23;60.14
65659;BME280;60181;53.258;6.932;2022-09-20T15:21:31;102497.29;;;18.24;60.07
65659;BME280;60181;53.258;6.932;2022-09-20T15:25:59;102497.78;;;18.24;60.09
65659;BME280;60181;53.258;6.932;2022-09-20T15:30:27;102500.77;;;18.23;60.24
65659;BME280;60181;53.258;6.932;2022-09-20T15:34:55;102501.97;;;18.22;60.37
65659;BME280;60181;53.258;6.932;2022-09-20T15:39:24;102502.62;;;18.21;60.28
65659;BME280;60181;53.258;6.932;2022-09-20T15:43:51;102502.62;;;18.21;60.29
65659;BME280;60181;53.258;6.932;2022-09-20T15:48:21;102503.21;;;18.21;60.20
65659;BME280;60181;53.258;6.932;2022-09-20T15:52:47;102503.45;;;18.22;60.24
65659;BME280;60181;53.258;6.932;2022-09-20T15:57:15;102503.87;;;18.22;60.38
65659;BME280;60181;53.258;6.932;2022-09-20T16:01:43;102505.35;;;18.20;60.56
65659;BME280;60181;53.258;6.932;2022-09-20T16:06:11;102506.84;;;18.17;60.82
65659;BME280;60181;53.258;6.932;2022-09-20T16:10:39;102508.11;;;18.14;60.80
65659;BME280;60181;53.258;6.932;2022-09-20T16:15:08;102510.71;;;18.12;60.78
65659;BME280;60181;53.258;6.932;2022-09-20T16:19:35;102512.49;;;18.10;60.86
65659;BME280;60181;53.258;6.932;2022-09-20T16:24:04;102514.42;;;18.08;60.89
65659;BME280;60181;53.258;6.932;2022-09-20T16:28:32;102516.60;;;18.06;60.98
65659;BME280;60181;53.258;6.932;2022-09-20T16:32:59;102518.90;;;18.05;61.02
65659;BME280;60181;53.258;6.932;2022-09-20T16:37:27;102521.78;;;18.04;61.01
65659;BME280;60181;53.258;6.932;2022-09-20T16:41:56;102525.15;;;18.02;61.06
65659;BME280;60181;53.258;6.932;2022-09-20T16:46:24;102528.36;;;18.01;61.16
65659;BME280;60181;53.258;6.932;2022-09-20T16:50:54;102531.45;;;17.99;61.27
65659;BME280;60181;53.258;6.932;2022-09-20T16:55:19;102534.08;;;17.98;61.31
65659;BME280;60181;53.258;6.932;2022-09-20T16:59:47;102537.29;;;17.96;61.29
65659;BME280;60181;53.258;6.932;2022-09-20T17:04:15;102541.03;;;17.96;61.88
65659;BME280;60181;53.258;6.932;2022-09-20T17:08:43;102542.65;;;17.95;61.68
65659;BME280;60181;53.258;6.932;2022-09-20T17:13:11;102545.15;;;17.94;61.72
65659;BME280;60181;53.258;6.932;2022-09-20T17:17:39;102547.11;;;17.93;61.67
65659;BME280;60181;53.258;6.932;2022-09-20T17:22:07;102549.32;;;17.92;61.78
65659;BME280;60181;53.258;6.932;2022-09-20T17:26:36;102551.37;;;17.91;61.81
65659;BME280;60181;53.258;6.932;2022-09-20T17:31:04;102553.30;;;17.89;61.83
65659;BME280;60181;53.258;6.932;2022-09-20T17:35:31;102556.01;;;17.88;61.84
65659;BME280;60181;53.258;6.932;2022-09-20T17:39:59;102560.29;;;17.87;61.86
65659;BME280;60181;53.258;6.932;2022-09-20T17:44:27;102563.94;;;17.86;62.16
65659;BME280;60181;53.258;6.932;2022-09-20T17:49:05;102567.00;;;17.87;61.77
65659;BME280;60181;53.258;6.932;2022-09-20T17:53:23;102570.15;;;17.87;61.78
65659;BME280;60181;53.258;6.932;2022-09-20T17:57:51;102573.60;;;17.86;61.88
65659;BME280;60181;53.258;6.932;2022-09-20T18:02:19;102578.11;;;17.87;62.34
65659;BME280;60181;53.258;6.932;2022-09-20T18:06:48;102583.28;;;17.88;61.84
65659;BME280;60181;53.258;6.932;2022-09-20T18:11:16;102588.24;;;17.88;61.88
65659;BME280;60181;53.258;6.932;2022-09-20T18:15:43;102592.53;;;17.87;62.02
65659;BME280;60181;53.258;6.932;2022-09-20T18:20:11;102597.75;;;17.86;62.03
65659;BME280;60181;53.258;6.932;2022-09-20T18:24:39;102602.78;;;17.86;61.98
65659;BME280;60181;53.258;6.932;2022-09-20T18:29:11;102606.90;;;17.85;62.01
65659;BME280;60181;53.258;6.932;2022-09-20T18:33:35;102610.84;;;17.84;61.99
65659;BME280;60181;53.258;6.932;2022-09-20T18:38:04;102614.47;;;17.83;61.96
65659;BME280;60181;53.258;6.932;2022-09-20T18:42:31;102617.82;;;17.82;61.98
65659;BME280;60181;53.258;6.932;2022-09-20T18:46:59;102620.91;;;17.81;61.96
65659;BME280;60181;53.258;6.932;2022-09-20T18:51:27;102623.44;;;17.80;61.93
65659;BME280;60181;53.258;6.932;2022-09-20T18:55:55;102626.32;;;17.79;61.91
65659;BME280;60181;53.258;6.932;2022-09-20T19:00:23;102628.38;;;17.79;61.93
65659;BME280;60181;53.258;6.932;2022-09-20T19:09:22;102634.13;;;17.77;61.95
65659;BME280;60181;53.258;6.932;2022-09-20T19:13:50;102637.18;;;17.76;61.94
65659;BME280;60181;53.258;6.932;2022-09-20T19:18:24;102640.47;;;17.76;61.98
65659;BME280;60181;53.258;6.932;2022-09-20T19:22:58;102643.63;;;17.75;61.93
65659;BME280;60181;53.258;6.932;2022-09-20T19:27:11;102646.33;;;17.75;61.92
65659;BME280;60181;53.258;6.932;2022-09-20T19:31:39;102649.61;;;17.74;61.99
65659;BME280;60181;53.258;6.932;2022-09-20T19:36:08;102652.59;;;17.74;62.07
65659;BME280;60181;53.258;6.932;2022-09-20T19:40:41;102656.30;;;17.73;61.99
65659;BME280;60181;53.258;6.932;2022-09-20T19:53:59;102666.96;;;17.71;62.01
65659;BME280;60181;53.258;6.932;2022-09-20T19:58:27;102670.52;;;17.71;61.93
65659;BME280;60181;53.258;6.932;2022-09-20T20:02:56;102674.76;;;17.71;61.98
65659;BME280;60181;53.258;6.932;2022-09-20T20:07:32;102677.61;;;17.70;62.00
65659;BME280;60181;53.258;6.932;2022-09-20T20:11:54;102681.02;;;17.70;62.33
65659;BME280;60181;53.258;6.932;2022-09-20T20:16:22;102682.75;;;17.71;61.96
65659;BME280;60181;53.258;6.932;2022-09-20T20:20:48;102683.58;;;17.70;62.16
65659;BME280;60181;53.258;6.932;2022-09-20T20:25:21;102684.91;;;17.70;62.14
65659;BME280;60181;53.258;6.932;2022-09-20T20:29:43;102688.44;;;17.69;62.11
65659;BME280;60181;53.258;6.932;2022-09-20T20:34:11;102690.19;;;17.69;62.17
65659;BME280;60181;53.258;6.932;2022-09-20T20:38:39;102691.97;;;17.68;62.12
65659;BME280;60181;53.258;6.932;2022-09-20T20:43:07;102694.51;;;17.67;62.24
65659;BME280;60181;53.258;6.932;2022-09-20T20:47:35;102696.83;;;17.67;62.14
65659;BME280;60181;53.258;6.932;2022-09-20T20:52:03;102699.15;;;17.66;62.12
65659;BME280;60181;53.258;6.932;2022-09-20T20:56:31;102701.86;;;17.66;62.25
65659;BME280;60181;53.258;6.932;2022-09-20T21:01:02;102704.42;;;17.65;60.98
65659;BME280;60181;53.258;6.932;2022-09-20T21:05:27;102707.09;;;17.63;60.21
65659;BME280;60181;53.258;6.932;2022-09-20T21:09:55;102710.06;;;17.60;59.74
65659;BME280;60181;53.258;6.932;2022-09-20T21:14:23;102713.48;;;17.58;59.52
65659;BME280;60181;53.258;6.932;2022-09-20T21:18:51;102716.36;;;17.55;59.14
65659;BME280;60181;53.258;6.932;2022-09-20T21:23:19;102718.95;;;17.52;58.91
65659;BME280;60181;53.258;6.932;2022-09-20T21:27:47;102722.99;;;17.49;58.61
65659;BME280;60181;53.258;6.932;2022-09-20T21:32:15;102725.57;;;17.47;58.41
65659;BME280;60181;53.258;6.932;2022-09-20T21:36:43;102727.08;;;17.45;58.30
65659;BME280;60181;53.258;6.932;2022-09-20T21:41:15;102729.33;;;17.42;58.15
65659;BME280;60181;53.258;6.932;2022-09-20T21:45:39;102732.25;;;17.40;58.11
65659;BME280;60181;53.258;6.932;2022-09-20T21:50:07;102734.17;;;17.38;57.72
65659;BME280;60181;53.258;6.932;2022-09-20T21:54:35;102736.57;;;17.36;58.04
65659;BME280;60181;53.258;6.932;2022-09-20T21:59:03;102738.83;;;17.33;57.90
65659;BME280;60181;53.258;6.932;2022-09-20T22:03:35;102741.37;;;17.32;57.59
65659;BME280;60181;53.258;6.932;2022-09-20T22:07:59;102743.70;;;17.30;57.55
65659;BME280;60181;53.258;6.932;2022-09-20T22:12:27;102745.32;;;17.29;57.62
65659;BME280;60181;53.258;6.932;2022-09-20T22:16:55;102746.78;;;17.28;57.70
65659;BME280;60181;53.258;6.932;2022-09-20T22:21:27;102748.99;;;17.27;57.57
65659;BME280;60181;53.258;6.932;2022-09-20T22:25:57;102750.18;;;17.25;57.46
65659;BME280;60181;53.258;6.932;2022-09-20T22:30:19;102751.35;;;17.24;57.60
65659;BME280;60181;53.258;6.932;2022-09-20T22:34:47;102751.83;;;17.22;57.73
65659;BME280;60181;53.258;6.932;2022-09-20T22:39:15;102753.20;;;17.21;57.50
65659;BME280;60181;53.258;6.932;2022-09-20T22:43:43;102754.41;;;17.20;57.47
65659;BME280;60181;53.258;6.932;2022-09-20T22:48:11;102756.40;;;17.20;57.97
65659;BME280;60181;53.258;6.932;2022-09-20T22:52:39;102757.19;;;17.19;57.59
65659;BME280;60181;53.258;6.932;2022-09-20T22:57:07;102757.40;;;17.18;57.56
65659;BME280;60181;53.258;6.932;2022-09-20T23:01:36;102756.87;;;17.17;57.34
65659;BME280;60181;53.258;6.932;2022-09-20T23:06:03;102756.49;;;17.16;57.35
65659;BME280;60181;53.258;6.932;2022-09-20T23:10:31;102755.80;;;17.14;57.45
65659;BME280;60181;53.258;6.932;2022-09-20T23:14:59;102757.18;;;17.14;57.12
65659;BME280;60181;53.258;6.932;2022-09-20T23:19:27;102758.75;;;17.13;57.34
65659;BME280;60181;53.258;6.932;2022-09-20T23:23:55;102761.10;;;17.14;57.27
65659;BME280;60181;53.258;6.932;2022-09-20T23:28:23;102762.88;;;17.15;57.39
65659;BME280;60181;53.258;6.932;2022-09-20T23:32:52;102764.28;;;17.15;57.32
65659;BME280;60181;53.258;6.932;2022-09-20T23:37:19;102765.58;;;17.14;57.08
65659;BME280;60181;53.258;6.932;2022-09-20T23:41:47;102766.86;;;17.13;56.97
65659;BME280;60181;53.258;6.932;2022-09-20T23:46:15;102768.60;;;17.11;56.92
65659;BME280;60181;53.258;6.932;2022-09-20T23:50:43;102769.08;;;17.10;56.96
65659;BME280;60181;53.258;6.932;2022-09-20T23:55:11;102770.65;;;17.08;56.95
65659;BME280;60181;53.258;6.932;2022-09-20T23:59:39;102772.94;;;17.07;56.76
